createdAt,value
2023-04-01T00:00:28.216Z,4.79
2023-04-01T00:01:28.243Z,4.78
2023-04-01T00:02:28.216Z,4.76
2023-04-01T00:03:28.492Z,4.75
2023-04-01T00:04:28.238Z,4.73
2023-04-01T00:05:28.183Z,4.72
2023-04-01T00:06:28.155Z,4.71
2023-04-01T00:07:30.692Z,4.70
2023-04-01T00:08:28.135Z,4.69
2023-04-01T00:09:29.988Z,4.68
2023-04-01T00:10:28.129Z,4.68
2023-04-01T00:11:28.086Z,4.66
2023-04-01T00:12:28.090Z,4.65
2023-04-01T00:13:28.065Z,4.64
2023-04-01T00:14:28.058Z,4.63
2023-04-01T00:15:28.046Z,4.62
2023-04-01T00:16:28.065Z,4.61
2023-04-01T00:17:28.020Z,4.59
2023-04-01T00:18:28.013Z,4.58
2023-04-01T00:19:27.976Z,4.56
2023-04-01T00:20:27.974Z,4.55
2023-04-01T00:21:27.984Z,4.54
2023-04-01T00:22:27.982Z,4.53
2023-04-01T00:23:27.925Z,4.53
2023-04-01T00:24:27.925Z,4.53
2023-04-01T00:25:27.901Z,4.52
2023-04-01T00:26:27.906Z,4.51
2023-04-01T00:27:27.880Z,4.50
2023-04-01T00:28:27.894Z,4.49
2023-04-01T00:29:27.911Z,4.48
2023-04-01T00:30:27.874Z,4.47
2023-04-01T00:31:27.909Z,4.47
2023-04-01T00:32:27.875Z,4.46
2023-04-01T00:33:27.826Z,4.46
2023-04-01T00:34:27.882Z,4.45
2023-04-01T00:35:27.794Z,4.44
2023-04-01T00:36:27.912Z,4.44
2023-04-01T00:37:27.768Z,4.43
2023-04-01T00:38:27.743Z,4.43
2023-04-01T00:39:27.731Z,4.42
2023-04-01T00:40:27.759Z,4.42
2023-04-01T00:41:27.716Z,4.41
2023-04-01T00:42:27.688Z,4.41
2023-04-01T00:43:27.668Z,4.40
2023-04-01T00:44:27.697Z,4.40
2023-04-01T00:45:27.681Z,4.39
2023-04-01T00:46:27.714Z,4.38
2023-04-01T00:47:27.675Z,4.36
2023-04-01T00:48:27.610Z,4.35
2023-04-01T00:49:27.595Z,4.34
2023-04-01T00:50:27.610Z,4.33
2023-04-01T00:51:27.579Z,4.32
2023-04-01T00:52:27.620Z,4.30
2023-04-01T00:53:27.543Z,4.29
2023-04-01T00:54:27.529Z,4.28
2023-04-01T00:55:27.524Z,4.26
2023-04-01T00:56:27.514Z,4.25
2023-04-01T00:57:27.527Z,4.25
2023-04-01T00:58:27.538Z,4.24
2023-04-01T00:59:27.480Z,4.24
2023-04-01T01:00:27.465Z,4.23
2023-04-01T01:01:27.500Z,4.22
2023-04-01T01:02:27.547Z,4.21
2023-04-01T01:03:27.509Z,4.20
2023-04-01T01:04:27.480Z,4.18
2023-04-01T01:05:27.597Z,4.17
2023-04-01T01:06:27.390Z,4.16
2023-04-01T01:07:27.377Z,4.13
2023-04-01T01:08:27.344Z,4.11
2023-04-01T01:09:27.368Z,4.10
2023-04-01T01:10:27.360Z,4.09
2023-04-01T01:11:27.946Z,4.08
2023-04-01T01:12:27.296Z,4.07
2023-04-01T01:13:27.291Z,4.06
2023-04-01T01:14:27.303Z,4.05
2023-04-01T01:15:27.259Z,4.05
2023-04-01T01:16:27.337Z,4.05
2023-04-01T01:17:27.272Z,4.05
2023-04-01T01:18:27.845Z,4.06
2023-04-01T01:19:27.210Z,4.06
2023-04-01T01:20:27.188Z,4.06
2023-04-01T01:21:27.185Z,4.06
2023-04-01T01:22:27.205Z,4.06
2023-04-01T01:23:27.167Z,4.05
2023-04-01T01:24:27.160Z,4.03
2023-04-01T01:25:27.182Z,4.02
2023-04-01T01:26:27.144Z,4.02
2023-04-01T01:27:27.149Z,4.02
2023-04-01T01:28:27.114Z,4.02
2023-04-01T01:29:27.070Z,4.01
2023-04-01T01:30:27.077Z,4.00
2023-04-01T01:31:27.081Z,3.98
2023-04-01T01:32:27.072Z,3.97
2023-04-01T01:33:27.082Z,3.96
2023-04-01T01:34:27.040Z,3.95
2023-04-01T01:35:27.006Z,3.93
2023-04-01T01:36:27.017Z,3.92
2023-04-01T01:37:27.001Z,3.90
2023-04-01T01:38:26.965Z,3.89
2023-04-01T01:39:26.953Z,3.89
2023-04-01T01:40:27.004Z,3.88
2023-04-01T01:41:26.942Z,3.87
2023-04-01T01:42:26.920Z,3.87
2023-04-01T01:43:26.907Z,3.86
2023-04-01T01:44:26.887Z,3.86
2023-04-01T01:45:26.869Z,3.85
2023-04-01T01:46:26.945Z,3.84
2023-04-01T01:47:26.891Z,3.83
2023-04-01T01:48:26.879Z,3.82
2023-04-01T01:49:26.845Z,3.80
2023-04-01T01:50:26.825Z,3.79
2023-04-01T01:51:26.791Z,3.79
2023-04-01T01:52:26.810Z,3.79
2023-04-01T01:53:26.771Z,3.78
2023-04-01T01:54:26.781Z,3.78
2023-04-01T01:55:26.748Z,3.78
2023-04-01T01:56:26.721Z,3.78
2023-04-01T01:57:26.740Z,3.78
2023-04-01T01:58:26.721Z,3.78
2023-04-01T01:59:26.726Z,3.78
2023-04-01T02:00:26.680Z,3.78
2023-04-01T02:01:26.877Z,3.78
2023-04-01T02:02:26.698Z,3.78
2023-04-01T02:03:26.656Z,3.79
2023-04-01T02:04:26.691Z,3.79
2023-04-01T02:05:26.649Z,3.78
2023-04-01T02:06:26.610Z,3.78
2023-04-01T02:07:26.602Z,3.79
2023-04-01T02:08:26.569Z,3.79
2023-04-01T02:09:26.575Z,3.79
2023-04-01T02:10:26.576Z,3.80
2023-04-01T02:11:26.576Z,3.80
2023-04-01T02:12:26.527Z,3.81
2023-04-01T02:13:26.532Z,3.81
2023-04-01T02:14:26.511Z,3.81
2023-04-01T02:15:26.501Z,3.81
2023-04-01T02:16:26.652Z,3.81
2023-04-01T02:17:26.497Z,3.81
2023-04-01T02:18:26.456Z,3.80
2023-04-01T02:19:26.442Z,3.80
2023-04-01T02:20:26.442Z,3.79
2023-04-01T02:21:26.426Z,3.79
2023-04-01T02:22:26.444Z,3.79
2023-04-01T02:23:26.410Z,3.78
2023-04-01T02:24:26.389Z,3.78
2023-04-01T02:25:26.378Z,3.77
2023-04-01T02:26:26.349Z,3.76
2023-04-01T02:27:26.353Z,3.76
2023-04-01T02:28:26.342Z,3.76
2023-04-01T02:29:26.316Z,3.76
2023-04-01T02:30:26.289Z,3.76
2023-04-01T02:31:26.321Z,3.76
2023-04-01T02:32:26.286Z,3.76
2023-04-01T02:33:26.255Z,3.76
2023-04-01T02:34:26.272Z,3.76
2023-04-01T02:35:26.252Z,3.76
2023-04-01T02:36:26.275Z,3.76
2023-04-01T02:37:26.230Z,3.77
2023-04-01T02:38:26.193Z,3.77
2023-04-01T02:39:26.190Z,3.78
2023-04-01T02:40:26.208Z,3.79
2023-04-01T02:41:26.171Z,3.79
2023-04-01T02:42:26.132Z,3.80
2023-04-01T02:43:26.129Z,3.81
2023-04-01T02:44:26.122Z,3.82
2023-04-01T02:45:26.101Z,3.83
2023-04-01T02:46:26.200Z,3.84
2023-04-01T02:47:26.136Z,3.85
2023-04-01T02:48:26.063Z,3.86
2023-04-01T02:49:26.076Z,3.87
2023-04-01T02:50:26.044Z,3.88
2023-04-01T02:51:26.034Z,3.89
2023-04-01T02:52:26.033Z,3.90
2023-04-01T02:53:25.998Z,3.90
2023-04-01T02:54:26.019Z,3.91
2023-04-01T02:55:25.980Z,3.92
2023-04-01T02:56:25.973Z,3.92
2023-04-01T02:57:25.993Z,3.94
2023-04-01T02:58:25.985Z,3.94
2023-04-01T02:59:25.927Z,3.95
2023-04-01T03:00:25.920Z,3.95
2023-04-01T03:01:25.990Z,3.96
2023-04-01T03:02:26.001Z,3.97
2023-04-01T03:03:25.944Z,3.97
2023-04-01T03:04:25.931Z,3.97
2023-04-01T03:05:25.878Z,3.98
2023-04-01T03:06:25.835Z,3.98
2023-04-01T03:07:25.857Z,3.98
2023-04-01T03:08:25.846Z,3.99
2023-04-01T03:09:25.810Z,3.99
2023-04-01T03:10:25.828Z,3.99
2023-04-01T03:11:25.807Z,3.99
2023-04-01T03:12:25.777Z,3.98
2023-04-01T03:13:25.756Z,3.98
2023-04-01T03:14:25.729Z,3.97
2023-04-01T03:15:25.741Z,3.97
2023-04-01T03:16:25.800Z,3.97
2023-04-01T03:17:25.745Z,3.97
2023-04-01T03:18:25.702Z,3.97
2023-04-01T03:19:25.685Z,3.96
2023-04-01T03:20:25.695Z,3.96
2023-04-01T03:21:25.665Z,3.96
2023-04-01T03:22:25.661Z,3.96
2023-04-01T03:23:25.628Z,3.95
2023-04-01T03:24:25.627Z,3.95
2023-04-01T03:25:25.596Z,3.95
2023-04-01T03:26:25.644Z,3.96
2023-04-01T03:27:25.582Z,3.95
2023-04-01T03:28:25.577Z,3.95
2023-04-01T03:29:25.553Z,3.95
2023-04-01T03:30:25.547Z,3.96
2023-04-01T03:31:25.579Z,3.96
2023-04-01T03:32:25.604Z,3.96
2023-04-01T03:33:25.570Z,3.96
2023-04-01T03:34:25.524Z,3.96
2023-04-01T03:35:25.478Z,3.96
2023-04-01T03:36:25.507Z,3.96
2023-04-01T03:37:25.457Z,3.97
2023-04-01T03:38:25.434Z,3.97
2023-04-01T03:39:25.415Z,3.97
2023-04-01T03:40:25.436Z,3.97
2023-04-01T03:41:25.408Z,3.97
2023-04-01T03:42:25.412Z,3.97
2023-04-01T03:43:25.370Z,3.97
2023-04-01T03:44:25.391Z,3.97
2023-04-01T03:45:25.355Z,3.97
2023-04-01T03:46:25.411Z,3.97
2023-04-01T03:47:25.359Z,3.98
2023-04-01T03:48:25.299Z,3.98
2023-04-01T03:49:25.294Z,3.98
2023-04-01T03:50:25.292Z,3.98
2023-04-01T03:51:25.257Z,3.98
2023-04-01T03:52:25.278Z,3.98
2023-04-01T03:53:25.235Z,3.98
2023-04-01T03:54:25.297Z,3.98
2023-04-01T03:55:25.224Z,3.98
2023-04-01T03:56:25.193Z,3.97
2023-04-01T03:57:25.239Z,3.96
2023-04-01T03:58:25.198Z,3.95
2023-04-01T03:59:25.155Z,3.93
2023-04-01T04:00:25.165Z,3.92
2023-04-01T04:01:25.129Z,3.92
2023-04-01T04:02:25.193Z,3.92
2023-04-01T04:03:25.259Z,3.92
2023-04-01T04:04:25.174Z,3.92
2023-04-01T04:05:25.075Z,3.92
2023-04-01T04:06:25.076Z,3.92
2023-04-01T04:07:25.063Z,3.92
2023-04-01T04:08:25.069Z,3.92
2023-04-01T04:09:25.062Z,3.91
2023-04-01T04:10:25.075Z,3.91
2023-04-01T04:11:25.024Z,3.91
2023-04-01T04:12:25.007Z,3.91
2023-04-01T04:13:25.002Z,3.90
2023-04-01T04:14:24.978Z,3.90
2023-04-01T04:15:24.956Z,3.90
2023-04-01T04:16:25.087Z,3.90
2023-04-01T04:17:24.960Z,3.90
2023-04-01T04:18:24.934Z,3.91
2023-04-01T04:19:24.906Z,3.91
2023-04-01T04:20:24.903Z,3.91
2023-04-01T04:21:24.894Z,3.92
2023-04-01T04:22:24.911Z,3.92
2023-04-01T04:23:24.873Z,3.92
2023-04-01T04:24:24.917Z,3.92
2023-04-01T04:25:24.822Z,3.92
2023-04-01T04:26:24.841Z,3.91
2023-04-01T04:27:24.816Z,3.91
2023-04-01T04:28:24.828Z,3.91
2023-04-01T04:29:24.808Z,3.91
2023-04-01T04:30:24.782Z,3.92
2023-04-01T04:31:24.782Z,3.93
2023-04-01T04:32:24.790Z,3.94
2023-04-01T04:33:24.754Z,3.95
2023-04-01T04:34:24.738Z,3.96
2023-04-01T04:35:24.716Z,3.97
2023-04-01T04:36:24.764Z,3.98
2023-04-01T04:37:24.680Z,4.00
2023-04-01T04:38:24.661Z,4.00
2023-04-01T04:39:24.667Z,4.00
2023-04-01T04:40:24.701Z,3.99
2023-04-01T04:41:24.657Z,3.98
2023-04-01T04:42:24.634Z,3.97
2023-04-01T04:43:24.602Z,3.96
2023-04-01T04:44:24.628Z,3.95
2023-04-01T04:45:24.587Z,3.93
2023-04-01T04:46:24.688Z,3.91
2023-04-01T04:47:24.598Z,3.90
2023-04-01T04:48:24.556Z,3.90
2023-04-01T04:49:24.541Z,3.90
2023-04-01T04:50:24.584Z,3.90
2023-04-01T04:51:24.524Z,3.91
2023-04-01T04:52:24.516Z,3.91
2023-04-01T04:53:24.482Z,3.93
2023-04-01T04:54:24.478Z,3.95
2023-04-01T04:55:24.463Z,3.98
2023-04-01T04:56:24.441Z,4.00
2023-04-01T04:57:24.496Z,4.03
2023-04-01T04:58:24.452Z,4.04
2023-04-01T04:59:24.412Z,4.05
2023-04-01T05:00:24.403Z,4.06
2023-04-01T05:01:24.406Z,4.06
2023-04-01T05:02:24.487Z,4.07
2023-04-01T05:03:24.600Z,4.09
2023-04-01T05:04:24.372Z,4.10
2023-04-01T05:05:24.316Z,4.10
2023-04-01T05:06:24.308Z,4.10
2023-04-01T05:07:24.313Z,4.09
2023-04-01T05:08:24.316Z,4.08
2023-04-01T05:09:24.355Z,4.07
2023-04-01T05:10:24.300Z,4.06
2023-04-01T05:11:24.250Z,4.05
2023-04-01T05:12:24.249Z,4.06
2023-04-01T05:13:24.244Z,4.07
2023-04-01T05:14:24.265Z,4.10
2023-04-01T05:15:24.260Z,4.11
2023-04-01T05:16:24.267Z,4.12
2023-04-01T05:17:24.236Z,4.11
2023-04-01T05:18:24.189Z,4.11
2023-04-01T05:19:24.162Z,4.09
2023-04-01T05:20:24.162Z,4.08
2023-04-01T05:21:24.120Z,4.07
2023-04-01T05:22:24.164Z,4.06
2023-04-01T05:23:24.150Z,4.04
2023-04-01T05:24:24.090Z,4.03
2023-04-01T05:25:24.090Z,4.02
2023-04-01T05:26:24.093Z,4.01
2023-04-01T05:27:24.047Z,4.00
2023-04-01T05:28:24.092Z,3.99
2023-04-01T05:29:24.026Z,3.98
2023-04-01T05:30:24.024Z,3.97
2023-04-01T05:31:24.098Z,3.97
2023-04-01T05:32:24.003Z,3.95
2023-04-01T05:33:23.991Z,3.94
2023-04-01T05:34:24.012Z,3.93
2023-04-01T05:35:24.082Z,3.93
2023-04-01T05:36:23.926Z,3.93
2023-04-01T05:37:23.914Z,3.93
2023-04-01T05:38:23.939Z,3.93
2023-04-01T05:39:23.976Z,3.94
2023-04-01T05:40:23.926Z,3.96
2023-04-01T05:41:23.878Z,3.99
2023-04-01T05:42:23.886Z,4.03
2023-04-01T05:43:23.862Z,4.06
2023-04-01T05:44:23.827Z,4.09
2023-04-01T05:45:23.820Z,4.11
2023-04-01T05:46:23.874Z,4.13
2023-04-01T05:47:23.858Z,4.14
2023-04-01T05:48:23.810Z,4.15
2023-04-01T05:49:24.065Z,4.16
2023-04-01T05:50:23.792Z,4.18
2023-04-01T05:51:23.768Z,4.23
2023-04-01T05:52:23.768Z,4.29
2023-04-01T05:53:23.718Z,4.32
2023-04-01T05:54:23.724Z,4.34
2023-04-01T05:55:23.687Z,4.34
2023-04-01T05:56:23.689Z,4.34
2023-04-01T05:57:23.831Z,4.35
2023-04-01T05:58:23.691Z,4.37
2023-04-01T05:59:23.648Z,4.42
2023-04-01T06:00:23.625Z,4.47
2023-04-01T06:01:23.656Z,4.51
2023-04-01T06:02:23.676Z,4.53
2023-04-01T06:03:23.678Z,4.55
2023-04-01T06:04:23.713Z,4.55
2023-04-01T06:05:23.567Z,4.55
2023-04-01T06:06:23.555Z,4.54
2023-04-01T06:07:23.557Z,4.56
2023-04-01T06:08:23.503Z,4.61
2023-04-01T06:09:23.561Z,4.67
2023-04-01T06:10:23.538Z,4.71
2023-04-01T06:11:23.477Z,4.72
2023-04-01T06:12:23.489Z,4.75
2023-04-01T06:13:23.476Z,4.77
2023-04-01T06:14:23.458Z,4.78
2023-04-01T06:15:23.420Z,4.77
2023-04-01T06:16:23.513Z,4.76
2023-04-01T06:17:23.470Z,4.74
2023-04-01T06:18:23.390Z,4.73
2023-04-01T06:19:23.408Z,4.73
2023-04-01T06:20:23.368Z,4.71
2023-04-01T06:21:23.361Z,4.71
2023-04-01T06:22:23.410Z,4.71
2023-04-01T06:23:23.352Z,4.72
2023-04-01T06:24:23.306Z,4.74
2023-04-01T06:25:23.315Z,4.77
2023-04-01T06:26:23.286Z,4.81
2023-04-01T06:27:23.300Z,4.83
2023-04-01T06:28:24.087Z,4.85
2023-04-01T06:29:23.300Z,4.87
2023-04-01T06:30:23.263Z,4.90
2023-04-01T06:31:23.324Z,4.93
2023-04-01T06:32:23.394Z,4.98
2023-04-01T06:33:23.202Z,5.01
2023-04-01T06:34:23.243Z,5.02
2023-04-01T06:35:23.183Z,5.04
2023-04-01T06:36:23.238Z,5.06
2023-04-01T06:37:23.149Z,5.08
2023-04-01T06:38:23.151Z,5.09
2023-04-01T06:39:23.166Z,5.10
2023-04-01T06:40:23.141Z,5.11
2023-04-01T06:41:23.089Z,5.12
2023-04-01T06:42:23.091Z,5.14
2023-04-01T06:43:23.077Z,5.17
2023-04-01T06:44:23.081Z,5.21
2023-04-01T06:45:23.034Z,5.24
2023-04-01T06:46:23.113Z,5.28
2023-04-01T06:47:23.017Z,5.33
2023-04-01T06:48:23.019Z,5.42
2023-04-01T06:49:22.999Z,5.62
2023-04-01T06:50:22.967Z,5.91
2023-04-01T06:51:22.988Z,6.19
2023-04-01T06:52:22.980Z,6.40
2023-04-01T06:53:22.951Z,6.58
2023-04-01T06:54:22.916Z,6.62
2023-04-01T06:55:23.090Z,6.54
2023-04-01T06:56:22.919Z,6.42
2023-04-01T06:57:22.922Z,6.35
2023-04-01T06:58:22.938Z,6.29
2023-04-01T06:59:22.869Z,6.21
2023-04-01T07:00:22.850Z,6.10
2023-04-01T07:01:22.891Z,6.03
2023-04-01T07:02:22.813Z,5.99
2023-04-01T07:03:22.852Z,5.95
2023-04-01T07:04:22.894Z,5.91
2023-04-01T07:05:22.786Z,5.88
2023-04-01T07:06:22.758Z,5.90
2023-04-01T07:07:22.754Z,5.94
2023-04-01T07:08:22.739Z,6.02
2023-04-01T07:09:22.749Z,6.09
2023-04-01T07:10:22.747Z,6.16
2023-04-01T07:11:22.697Z,6.24
2023-04-01T07:12:22.689Z,6.36
2023-04-01T07:13:22.679Z,6.44
2023-04-01T07:14:22.683Z,6.44
2023-04-01T07:15:22.652Z,6.43
2023-04-01T07:16:22.719Z,6.43
2023-04-01T07:17:22.752Z,6.45
2023-04-01T07:18:22.620Z,6.54
2023-04-01T07:19:22.608Z,6.70
2023-04-01T07:20:22.580Z,6.80
2023-04-01T07:21:22.562Z,6.83
2023-04-01T07:22:22.611Z,6.86
2023-04-01T07:23:22.549Z,6.91
2023-04-01T07:24:22.602Z,6.94
2023-04-01T07:25:22.508Z,6.94
2023-04-01T07:26:22.536Z,6.97
2023-04-01T07:27:22.535Z,7.03
2023-04-01T07:28:22.527Z,7.24
2023-04-01T07:29:22.518Z,7.46
2023-04-01T07:30:22.490Z,7.56
2023-04-01T07:31:22.522Z,7.62
2023-04-01T07:32:22.480Z,7.66
2023-04-01T07:33:22.415Z,7.69
2023-04-01T07:34:22.424Z,7.70
2023-04-01T07:35:22.395Z,7.73
2023-04-01T07:36:22.420Z,7.70
2023-04-01T07:37:22.380Z,7.64
2023-04-01T07:38:22.380Z,7.70
2023-04-01T07:39:22.357Z,7.81
2023-04-01T07:40:22.377Z,7.87
2023-04-01T07:41:22.324Z,7.88
2023-04-01T07:42:22.299Z,7.82
2023-04-01T07:43:22.290Z,7.73
2023-04-01T07:44:22.280Z,7.64
2023-04-01T07:45:22.287Z,7.58
2023-04-01T07:46:22.371Z,7.53
2023-04-01T07:47:22.222Z,7.44
2023-04-01T07:48:22.226Z,7.32
2023-04-01T07:49:22.221Z,7.20
2023-04-01T07:50:22.186Z,7.09
2023-04-01T07:51:22.204Z,6.99
2023-04-01T07:52:22.309Z,6.90
2023-04-01T07:53:22.165Z,6.82
2023-04-01T07:54:22.142Z,6.75
2023-04-01T07:55:22.161Z,6.69
2023-04-01T07:56:22.140Z,6.64
2023-04-01T07:57:22.161Z,6.62
2023-04-01T07:58:22.140Z,6.60
2023-04-01T07:59:22.101Z,6.56
2023-04-01T08:00:22.081Z,6.53
2023-04-01T08:01:22.066Z,6.52
2023-04-01T08:02:22.103Z,6.55
2023-04-01T08:03:22.113Z,6.59
2023-04-01T08:04:22.065Z,6.60
2023-04-01T08:05:22.021Z,6.58
2023-04-01T08:06:21.999Z,6.60
2023-04-01T08:07:21.988Z,6.67
2023-04-01T08:08:21.966Z,6.75
2023-04-01T08:09:21.964Z,6.77
2023-04-01T08:10:21.975Z,6.72
2023-04-01T08:11:21.912Z,6.67
2023-04-01T08:12:22.628Z,6.64
2023-04-01T08:13:21.891Z,6.61
2023-04-01T08:14:21.889Z,6.60
2023-04-01T08:15:21.887Z,6.61
2023-04-01T08:16:21.887Z,6.62
2023-04-01T08:17:21.859Z,6.64
2023-04-01T08:18:21.830Z,6.66
2023-04-01T08:19:21.824Z,6.70
2023-04-01T08:20:21.799Z,6.76
2023-04-01T08:21:21.792Z,6.77
2023-04-01T08:22:21.794Z,6.76
2023-04-01T08:23:21.759Z,6.75
2023-04-01T08:24:22.831Z,6.73
2023-04-01T08:25:21.731Z,6.69
2023-04-01T08:26:21.721Z,6.65
2023-04-01T08:27:21.738Z,6.63
2023-04-01T08:28:21.717Z,6.62
2023-04-01T08:29:21.686Z,6.63
2023-04-01T08:30:21.675Z,6.65
2023-04-01T08:31:21.699Z,6.66
2023-04-01T08:32:21.689Z,6.68
2023-04-01T08:33:21.621Z,6.71
2023-04-01T08:34:21.670Z,6.73
2023-04-01T08:35:21.625Z,6.72
2023-04-01T08:36:21.629Z,6.69
2023-04-01T08:37:21.575Z,6.68
2023-04-01T08:38:21.566Z,6.69
2023-04-01T08:39:21.557Z,6.66
2023-04-01T08:40:21.647Z,6.60
2023-04-01T08:41:21.529Z,6.54
2023-04-01T08:42:21.504Z,6.51
2023-04-01T08:43:21.499Z,6.49
2023-04-01T08:44:21.481Z,6.49
2023-04-01T08:45:21.471Z,6.49
2023-04-01T08:46:21.619Z,6.48
2023-04-01T08:47:21.470Z,6.48
2023-04-01T08:48:21.443Z,6.47
2023-04-01T08:49:21.424Z,6.46
2023-04-01T08:50:21.434Z,6.45
2023-04-01T08:51:21.496Z,6.44
2023-04-01T08:52:21.422Z,6.44
2023-04-01T08:53:21.449Z,6.43
2023-04-01T08:54:21.469Z,6.43
2023-04-01T08:55:21.343Z,6.45
2023-04-01T08:56:21.343Z,6.48
2023-04-01T08:57:21.355Z,6.52
2023-04-01T08:58:21.342Z,6.55
2023-04-01T08:59:21.314Z,6.57
2023-04-01T09:00:21.315Z,6.57
2023-04-01T09:01:21.295Z,6.54
2023-04-01T09:02:21.391Z,6.50
2023-04-01T09:03:21.314Z,6.45
2023-04-01T09:04:21.273Z,6.40
2023-04-01T09:05:21.202Z,6.37
2023-04-01T09:06:21.197Z,6.35
2023-04-01T09:07:21.195Z,6.33
2023-04-01T09:08:21.182Z,6.31
2023-04-01T09:09:21.185Z,6.28
2023-04-01T09:10:21.258Z,6.24
2023-04-01T09:11:21.153Z,6.21
2023-04-01T09:12:21.121Z,6.21
2023-04-01T09:13:21.127Z,6.21
2023-04-01T09:14:21.108Z,6.20
2023-04-01T09:15:21.120Z,6.19
2023-04-01T09:16:21.153Z,6.18
2023-04-01T09:17:21.106Z,6.16
2023-04-01T09:18:21.083Z,6.14
2023-04-01T09:19:21.074Z,6.13
2023-04-01T09:20:21.166Z,6.13
2023-04-01T09:21:21.001Z,6.11
2023-04-01T09:22:21.036Z,6.09
2023-04-01T09:23:20.990Z,6.08
2023-04-01T09:24:20.984Z,6.08
2023-04-01T09:25:20.992Z,6.08
2023-04-01T09:26:20.944Z,6.09
2023-04-01T09:27:20.956Z,6.10
2023-04-01T09:28:20.985Z,6.12
2023-04-01T09:29:20.930Z,6.13
2023-04-01T09:30:20.956Z,6.12
2023-04-01T09:31:20.933Z,6.09
2023-04-01T09:32:20.900Z,6.07
2023-04-01T09:33:20.884Z,6.05
2023-04-01T09:34:20.902Z,6.02
2023-04-01T09:35:20.862Z,5.99
2023-04-01T09:36:20.859Z,5.96
2023-04-01T09:37:20.797Z,5.93
2023-04-01T09:38:21.015Z,5.91
2023-04-01T09:39:20.798Z,5.90
2023-04-01T09:40:20.812Z,5.89
2023-04-01T09:41:20.753Z,5.87
2023-04-01T09:42:20.743Z,5.85
2023-04-01T09:43:20.738Z,5.83
2023-04-01T09:44:20.736Z,5.83
2023-04-01T09:45:20.733Z,5.82
2023-04-01T09:46:20.781Z,5.80
2023-04-01T09:47:20.665Z,5.78
2023-04-01T09:48:21.450Z,5.78
2023-04-01T09:49:20.650Z,5.77
2023-04-01T09:50:20.671Z,5.74
2023-04-01T09:51:20.659Z,5.71
2023-04-01T09:52:20.646Z,5.69
2023-04-01T09:53:20.617Z,5.67
2023-04-01T09:54:20.688Z,5.67
2023-04-01T09:55:20.573Z,5.68
2023-04-01T09:56:20.572Z,5.70
2023-04-01T09:57:20.621Z,5.70
2023-04-01T09:58:20.573Z,5.67
2023-04-01T09:59:20.549Z,5.65
2023-04-01T10:00:20.515Z,5.65
2023-04-01T10:01:20.521Z,5.64
2023-04-01T10:02:20.501Z,5.64
2023-04-01T10:03:20.513Z,5.67
2023-04-01T10:04:20.556Z,5.69
2023-04-01T10:05:20.491Z,5.71
2023-04-01T10:06:20.451Z,5.71
2023-04-01T10:07:20.423Z,5.73
2023-04-01T10:08:20.423Z,5.75
2023-04-01T10:09:21.324Z,5.73
2023-04-01T10:10:20.416Z,5.72
2023-04-01T10:11:20.380Z,5.74
2023-04-01T10:12:20.368Z,5.77
2023-04-01T10:13:20.359Z,5.81
2023-04-01T10:14:20.379Z,5.85
2023-04-01T10:15:20.331Z,5.88
2023-04-01T10:16:20.416Z,5.94
2023-04-01T10:17:20.292Z,5.99
2023-04-01T10:18:20.273Z,6.02
2023-04-01T10:19:21.521Z,6.04
2023-04-01T10:20:20.365Z,6.07
2023-04-01T10:21:20.425Z,6.11
2023-04-01T10:22:20.388Z,6.14
2023-04-01T10:23:20.868Z,6.16
2023-04-01T10:24:20.264Z,6.18
2023-04-01T10:25:20.207Z,6.19
2023-04-01T10:26:20.203Z,6.17
2023-04-01T10:27:20.174Z,6.19
2023-04-01T10:28:20.188Z,6.22
2023-04-01T10:29:20.302Z,6.27
2023-04-01T10:30:20.132Z,6.33
2023-04-01T10:31:20.127Z,6.36
2023-04-01T10:32:20.117Z,6.40
2023-04-01T10:33:20.130Z,6.43
2023-04-01T10:34:20.111Z,6.45
2023-04-01T10:35:20.064Z,6.46
2023-04-01T10:36:20.070Z,6.46
2023-04-01T10:37:20.035Z,6.45
2023-04-01T10:38:20.032Z,6.45
2023-04-01T10:39:20.051Z,6.41
2023-04-01T10:40:20.028Z,6.38
2023-04-01T10:41:19.980Z,6.37
2023-04-01T10:42:20.040Z,6.37
2023-04-01T10:43:19.957Z,6.36
2023-04-01T10:44:20.099Z,6.37
2023-04-01T10:45:19.927Z,6.41
2023-04-01T10:46:19.960Z,6.44
2023-04-01T10:47:19.889Z,6.46
2023-04-01T10:48:19.936Z,6.46
2023-04-01T10:49:19.893Z,6.47
2023-04-01T10:50:19.930Z,6.50
2023-04-01T10:51:19.838Z,6.54
2023-04-01T10:52:19.882Z,6.55
2023-04-01T10:53:19.831Z,6.54
2023-04-01T10:54:19.813Z,6.50
2023-04-01T10:55:19.792Z,6.47
2023-04-01T10:56:19.793Z,6.45
2023-04-01T10:57:19.792Z,6.43
2023-04-01T10:58:19.778Z,6.43
2023-04-01T10:59:19.768Z,6.45
2023-04-01T11:00:19.749Z,6.49
2023-04-01T11:01:19.772Z,6.52
2023-04-01T11:02:19.757Z,6.55
2023-04-01T11:03:19.826Z,6.59
2023-04-01T11:04:19.777Z,6.61
2023-04-01T11:05:20.858Z,6.60
2023-04-01T11:06:19.683Z,6.58
2023-04-01T11:07:20.000Z,6.59
2023-04-01T11:08:19.693Z,6.60
2023-04-01T11:09:20.506Z,6.60
2023-04-01T11:10:19.952Z,6.61
2023-04-01T11:11:19.650Z,6.62
2023-04-01T11:12:19.671Z,6.63
2023-04-01T11:13:19.552Z,6.64
2023-04-01T11:14:19.563Z,6.66
2023-04-01T11:15:19.539Z,6.65
2023-04-01T11:16:19.814Z,6.63
2023-04-01T11:17:19.807Z,6.61
2023-04-01T11:18:19.489Z,6.62
2023-04-01T11:19:20.315Z,6.62
2023-04-01T11:20:19.518Z,6.63
2023-04-01T11:21:19.491Z,6.62
2023-04-01T11:22:19.477Z,6.60
2023-04-01T11:23:19.456Z,6.56
2023-04-01T11:24:19.520Z,6.55
2023-04-01T11:25:19.496Z,6.55
2023-04-01T11:26:19.507Z,6.53
2023-04-01T11:27:19.403Z,6.50
2023-04-01T11:28:19.418Z,6.50
2023-04-01T11:29:19.375Z,6.53
2023-04-01T11:30:19.347Z,6.57
2023-04-01T11:31:19.388Z,6.61
2023-04-01T11:32:19.310Z,6.63
2023-04-01T11:33:20.857Z,6.66
2023-04-01T11:34:19.339Z,6.70
2023-04-01T11:35:19.287Z,6.75
2023-04-01T11:36:19.288Z,6.80
2023-04-01T11:37:19.330Z,6.86
2023-04-01T11:38:19.257Z,6.93
2023-04-01T11:39:19.243Z,7.01
2023-04-01T11:40:19.237Z,7.10
2023-04-01T11:41:19.251Z,7.14
2023-04-01T11:42:19.185Z,7.12
2023-04-01T11:43:32.307Z,7.05
2023-04-01T11:44:19.190Z,6.98
2023-04-01T11:45:19.149Z,6.95
2023-04-01T11:46:19.194Z,6.96
2023-04-01T11:47:19.136Z,7.01
2023-04-01T11:48:19.149Z,7.08
2023-04-01T11:49:19.094Z,7.17
2023-04-01T11:50:19.097Z,7.25
2023-04-01T11:51:19.092Z,7.31
2023-04-01T11:52:19.109Z,7.35
2023-04-01T11:53:19.039Z,7.38
2023-04-01T11:54:19.065Z,7.41
2023-04-01T11:55:19.026Z,7.45
2023-04-01T11:56:19.004Z,7.49
2023-04-01T11:57:19.020Z,7.53
2023-04-01T11:58:19.005Z,7.58
2023-04-01T11:59:18.979Z,7.62
2023-04-01T12:00:18.945Z,7.68
2023-04-01T12:01:18.939Z,7.74
2023-04-01T12:02:21.178Z,7.81
2023-04-01T12:03:19.060Z,7.88
2023-04-01T12:04:19.116Z,7.97
2023-04-01T12:05:18.874Z,8.02
2023-04-01T12:06:18.871Z,8.05
2023-04-01T12:07:19.409Z,8.06
2023-04-01T12:08:18.841Z,8.05
2023-04-01T12:09:18.850Z,8.02
2023-04-01T12:10:18.849Z,8.01
2023-04-01T12:11:18.815Z,8.02
2023-04-01T12:12:18.813Z,7.99
2023-04-01T12:13:18.771Z,7.98
2023-04-01T12:14:18.774Z,7.97
2023-04-01T12:15:18.770Z,7.93
2023-04-01T12:16:18.860Z,7.86
2023-04-01T12:17:18.752Z,7.80
2023-04-01T12:18:18.999Z,7.74
2023-04-01T12:19:18.730Z,7.69
2023-04-01T12:20:18.720Z,7.72
2023-04-01T12:21:18.749Z,7.79
2023-04-01T12:22:18.750Z,7.88
2023-04-01T12:23:18.654Z,7.97
2023-04-01T12:24:18.626Z,8.06
2023-04-01T12:25:18.655Z,8.13
2023-04-01T12:26:18.604Z,8.20
2023-04-01T12:27:19.398Z,8.26
2023-04-01T12:28:18.648Z,8.32
2023-04-01T12:29:18.582Z,8.34
2023-04-01T12:30:19.503Z,8.32
2023-04-01T12:31:18.555Z,8.32
2023-04-01T12:32:18.596Z,8.34
2023-04-01T12:33:18.569Z,8.38
2023-04-01T12:34:18.552Z,8.43
2023-04-01T12:35:18.496Z,8.45
2023-04-01T12:36:18.515Z,8.45
2023-04-01T12:37:18.487Z,8.45
2023-04-01T12:38:20.300Z,8.43
2023-04-01T12:39:18.473Z,8.39
2023-04-01T12:40:18.473Z,8.36
2023-04-01T12:41:18.685Z,8.31
2023-04-01T12:42:18.433Z,8.25
2023-04-01T12:43:18.389Z,8.18
2023-04-01T12:44:18.432Z,8.15
2023-04-01T12:45:18.394Z,8.15
2023-04-01T12:46:18.502Z,8.16
2023-04-01T12:47:18.356Z,8.16
2023-04-01T12:48:18.335Z,8.13
2023-04-01T12:49:18.921Z,8.09
2023-04-01T12:50:18.325Z,8.03
2023-04-01T12:51:18.310Z,7.98
2023-04-01T12:52:18.352Z,7.94
2023-04-01T12:53:18.258Z,7.91
2023-04-01T12:54:18.254Z,7.87
2023-04-01T12:55:18.249Z,7.81
2023-04-01T12:56:18.242Z,7.78
2023-04-01T12:57:18.255Z,7.82
2023-04-01T12:58:18.261Z,7.91
2023-04-01T12:59:18.185Z,8.02
2023-04-01T13:00:18.169Z,8.15
2023-04-01T13:01:18.203Z,8.33
2023-04-01T13:02:18.203Z,8.54
2023-04-01T13:03:18.290Z,8.72
2023-04-01T13:04:18.282Z,8.83
2023-04-01T13:05:18.103Z,8.94
2023-04-01T13:06:20.912Z,9.12
2023-04-01T13:07:18.088Z,9.34
2023-04-01T13:08:18.118Z,9.52
2023-04-01T13:09:18.234Z,9.64
2023-04-01T13:10:18.091Z,9.75
2023-04-01T13:11:18.033Z,9.90
2023-04-01T13:12:18.047Z,10.01
2023-04-01T13:13:17.994Z,10.07
2023-04-01T13:14:30.781Z,10.09
2023-04-01T13:15:18.000Z,10.04
2023-04-01T13:16:18.061Z,9.93
2023-04-01T13:17:18.001Z,9.80
2023-04-01T13:18:17.939Z,9.67